Time;durP1;ratioP1;P1;durP2;ratioP2;P2;SDS_P1;SDS_P2;PMS_P1;PMS_P2;Temp;Humidity;BMP_temperature;BMP_pressure;BME280_temperature;BME280_humidity;BME280_pressure;Samples;Min_cycle;Max_cycle;Signal;HPM_P1;HPM_P2
2021/01/24 00:01:01;;;;;;;;;;;;;;;;;;5075524;28;19955;-62
2021/01/24 00:03:27;;;;;;;;;;;;;;;;;;5075477;28;20391;-62
2021/01/24 00:05:53;;;;;;;;;;;;;;;;;;5075400;28;19908;-62
2021/01/24 00:08:19;;;;;;;;;;;;;;;;;;5075598;28;19913;-61
2021/01/24 00:10:45;;;;;;;;;;;;;;;;;;5075215;28;19995;-62
2021/01/24 00:13:11;;;;;;;;;;;;;;;;;;5075282;28;19923;-62
2021/01/24 00:15:37;;;;;;;;;;;;;;;;;;5075296;28;19909;-62
2021/01/24 00:18:03;;;;;;;;;;;;;;;;;;5075139;28;19947;-61
2021/01/24 00:20:29;;;;;;;;;;;;;;;;;;5075114;28;19915;-62
2021/01/24 00:22:55;;;;;;;;;;;;;;;;;;5075426;28;20001;-61
2021/01/24 00:25:21;;;;;;;;;;;;;;;;;;5075096;28;19908;-62
2021/01/24 00:27:47;;;;;;;;;;;;;;;;;;5075006;28;19908;-62
2021/01/24 00:30:12;;;;;;;;;;;;;;;;;;5074869;28;19979;-62
2021/01/24 00:32:38;;;;;;;;;;;;;;;;;;5074881;28;20025;-62
2021/01/24 00:35:04;;;;;;;;;;;;;;;;;;5075200;28;19919;-62
2021/01/24 00:37:30;;;;;;;;;;;;;;;;;;5075014;28;19924;-62
2021/01/24 00:39:56;;;;;;;;;;;;;;;;;;5074733;28;20007;-62
2021/01/24 00:42:22;;;;;;;;;;;;;;;;;;5074716;28;19909;-62
2021/01/24 00:44:48;;;;;;;;;;;;;;;;;;5073442;28;19909;-62
2021/01/24 00:47:14;;;;;;;;;;;;;;;;;;5074400;28;20379;-62
2021/01/24 00:49:40;;;;;;;;;;;;;;;;;;5074843;28;19923;-62
2021/01/24 00:52:06;;;;;;;;;;;;;;;;;;5074436;28;19943;-62
2021/01/24 00:54:32;;;;;;;;;;;;;;;;;;5074441;28;20391;-62
2021/01/24 00:56:58;;;;;;;;;;;;;;;;;;5074229;28;20007;-62
2021/01/24 00:59:24;;;;;;;;;;;;;;;;;;5074810;28;19913;-62
2021/01/24 01:01:50;;;;;;;;;;;;;;;;;;5074433;28;19952;-62
2021/01/24 01:04:16;;;;;;;;;;;;;;;;;;5074566;28;19923;-62
2021/01/24 01:06:42;;;;;;;;;;;;;;;;;;5074431;28;20376;-62
2021/01/24 01:09:08;;;;;;;;;;;;;;;;;;5074218;28;19962;-62
2021/01/24 01:11:34;;;;;;;;;;;;;;;;;;5074331;28;19914;-62
2021/01/24 01:14:00;;;;;;;;;;;;;;;;;;5074136;28;20400;-62
2021/01/24 01:16:26;;;;;;;;;;;;;;;;;;5074098;28;19928;-62
2021/01/24 01:18:52;;;;;;;;;;;;;;;;;;5074333;28;19927;-62
2021/01/24 01:21:18;;;;;;;;;;;;;;;;;;5074450;28;19953;-62
2021/01/24 01:23:44;;;;;;;;;;;;;;;;;;5073891;28;20440;-62
2021/01/24 01:26:10;;;;;;;;;;;;;;;;;;5074199;28;19908;-62
2021/01/24 01:28:36;;;;;;;;;;;;;;;;;;5073822;28;19923;-62
2021/01/24 01:31:02;;;;;;;;;;;;;;;;;;5074009;28;20143;-62
2021/01/24 01:33:28;;;;;;;;;;;;;;;;;;5073818;28;19908;-62
2021/01/24 01:35:54;;;;;;;;;;;;;;;;;;5074076;28;19966;-62
2021/01/24 01:38:20;;;;;;;;;;;;;;;;;;5073846;28;20285;-62
2021/01/24 01:40:46;;;;;;;;;;;;;;;;;;5073927;28;19943;-62
2021/01/24 01:43:12;;;;;;;;;;;;;;;;;;5073753;28;19926;-62
2021/01/24 01:45:37;;;;;;;;;;;;;;;;;;5073828;28;19930;-62
2021/01/24 01:48:03;;;;;;;;;;;;;;;;;;5073533;28;19916;-62
2021/01/24 01:50:29;;;;;;;;;;;;;;;;;;5073787;28;19912;-62
2021/01/24 01:52:55;;;;;;;;;;;;;;;;;;5073907;28;19908;-62
2021/01/24 01:55:22;;;;;;;;;;;;;;;;;;5077179;28;19909;-62
2021/01/24 01:57:48;;;;;;;;;;;;;;;;;;5080237;28;20426;-62
2021/01/24 02:00:13;;;;;;;;;;;;;;;;;;5080276;28;19954;-62
2021/01/24 02:02:40;;;;;;;;;;;;;;;;;;5080084;28;19995;-62
2021/01/24 02:05:06;;;;;;;;;;;;;;;;;;5080276;28;19909;-62
2021/01/24 02:07:32;;;;;;;;;;;;;;;;;;5080009;28;19916;-62
2021/01/24 02:09:58;;;;;;;;;;;;;;;;;;5080429;28;19958;-62
2021/01/24 02:12:24;;;;;;;;;;;;;;;;;;5080204;28;20114;-62
2021/01/24 02:14:50;;;;;;;;;;;;;;;;;;5080056;28;19915;-62
2021/01/24 02:17:18;;;;;;;;;;;;;;;;;;5080120;28;19961;-61
2021/01/24 02:19:44;;;;;;;;;;;;;;;;;;5080169;28;20000;-62
2021/01/24 02:22:10;;;;;;;;;;;;;;;;;;5080175;28;20304;-62
2021/01/24 02:24:36;;;;;;;;;;;;;;;;;;5079940;28;19908;-62
2021/01/24 02:27:02;;;;;;;;;;;;;;;;;;5080333;28;19943;-62
2021/01/24 02:29:28;;;;;;;;;;;;;;;;;;5080193;28;20242;-62
2021/01/24 02:31:54;;;;;;;;;;;;;;;;;;5080103;28;20414;-62
2021/01/24 02:34:20;;;;;;;;;;;;;;;;;;5079973;28;19957;-62
2021/01/24 02:36:45;;;;;;;;;;;;;;;;;;5079972;28;20446;-62
2021/01/24 02:39:11;;;;;;;;;;;;;;;;;;5079874;28;20014;-62
2021/01/24 02:41:37;;;;;;;;;;;;;;;;;;5080038;28;19950;-63
2021/01/24 02:44:03;;;;;;;;;;;;;;;;;;5080076;28;19912;-62
2021/01/24 02:46:29;;;;;;;;;;;;;;;;;;5079875;28;19962;-61
2021/01/24 02:48:55;;;;;;;;;;;;;;;;;;5079731;28;19954;-62
2021/01/24 02:51:21;;;;;;;;;;;;;;;;;;5079810;28;19979;-62
2021/01/24 02:53:47;;;;;;;;;;;;;;;;;;5080086;28;19912;-62
2021/01/24 02:56:13;;;;;;;;;;;;;;;;;;5079720;28;20342;-62
2021/01/24 02:58:39;;;;;;;;;;;;;;;;;;5080055;28;19973;-61
2021/01/24 03:01:05;;;;;;;;;;;;;;;;;;5079769;28;19909;-61
2021/01/24 03:03:31;;;;;;;;;;;;;;;;;;5079664;28;19916;-61
2021/01/24 03:05:57;;;;;;;;;;;;;;;;;;5078782;28;19908;-62
2021/01/24 03:08:23;;;;;;;;;;;;;;;;;;5076083;28;19954;-62
2021/01/24 03:10:49;;;;;;;;;;;;;;;;;;5076373;28;20289;-62
2021/01/24 03:13:15;;;;;;;;;;;;;;;;;;5076664;28;19928;-62
2021/01/24 03:15:41;;;;;;;;;;;;;;;;;;5076381;28;20037;-62
2021/01/24 03:18:07;;;;;;;;;;;;;;;;;;5076363;28;19912;-62
2021/01/24 03:20:33;;;;;;;;;;;;;;;;;;5077305;28;19966;-62
2021/01/24 03:22:59;;;;;;;;;;;;;;;;;;5076558;28;19908;-62
2021/01/24 03:25:25;;;;;;;;;;;;;;;;;;5076262;28;19946;-62
2021/01/24 03:27:51;;;;;;;;;;;;;;;;;;5076241;28;19909;-62
2021/01/24 03:30:17;;;;;;;;;;;;;;;;;;5076022;28;19908;-62
2021/01/24 03:32:43;;;;;;;;;;;;;;;;;;5076066;28;20003;-62
2021/01/24 03:35:09;;;;;;;;;;;;;;;;;;5076202;28;19916;-62
2021/01/24 03:37:35;;;;;;;;;;;;;;;;;;5074731;28;20043;-62
2021/01/24 03:40:01;;;;;;;;;;;;;;;;;;5075954;28;19908;-61
2021/01/24 03:42:28;;;;;;;;;;;;;;;;;;5076045;28;20361;-62
2021/01/24 03:44:54;;;;;;;;;;;;;;;;;;5076003;28;19983;-63
2021/01/24 03:47:20;;;;;;;;;;;;;;;;;;5074531;28;19997;-62
2021/01/24 03:49:46;;;;;;;;;;;;;;;;;;5075945;28;19917;-62
2021/01/24 03:52:12;;;;;;;;;;;;;;;;;;5075887;28;20322;-62
2021/01/24 03:54:38;;;;;;;;;;;;;;;;;;5074190;28;19947;-62
2021/01/24 03:57:04;;;;;;;;;;;;;;;;;;5075510;28;19928;-62
2021/01/24 03:59:30;;;;;;;;;;;;;;;;;;5075484;28;20347;-62
2021/01/24 04:01:56;;;;;;;;;;;;;;;;;;5075453;28;19908;-62
2021/01/24 04:04:22;;;;;;;;;;;;;;;;;;5075619;28;19984;-62
2021/01/24 04:06:48;;;;;;;;;;;;;;;;;;5075720;28;20292;-61
2021/01/24 04:09:14;;;;;;;;;;;;;;;;;;5075307;28;20053;-62
2021/01/24 04:11:40;;;;;;;;;;;;;;;;;;5075201;28;19909;-62
2021/01/24 04:14:06;;;;;;;;;;;;;;;;;;5075504;28;19909;-62
2021/01/24 04:16:32;;;;;;;;;;;;;;;;;;5075142;28;19917;-62
2021/01/24 04:18:58;;;;;;;;;;;;;;;;;;5075033;28;19935;-61
2021/01/24 04:21:24;;;;;;;;;;;;;;;;;;5075339;28;20088;-62
2021/01/24 04:23:50;;;;;;;;;;;;;;;;;;5074952;28;20373;-62
2021/01/24 04:26:16;;;;;;;;;;;;;;;;;;5075052;28;19909;-62
2021/01/24 04:28:42;;;;;;;;;;;;;;;;;;5074958;28;20010;-62
2021/01/24 04:31:08;;;;;;;;;;;;;;;;;;5074903;28;19908;-62
2021/01/24 04:33:34;;;;;;;;;;;;;;;;;;5074906;28;20506;-62
2021/01/24 04:35:59;;;;;;;;;;;;;;;;;;5074856;28;19908;-61
2021/01/24 04:38:25;;;;;;;;;;;;;;;;;;5074841;28;19935;-62
2021/01/24 04:40:51;;;;;;;;;;;;;;;;;;5074632;28;19923;-62
2021/01/24 04:43:17;;;;;;;;;;;;;;;;;;5074921;28;19923;-62
2021/01/24 04:45:43;;;;;;;;;;;;;;;;;;5074639;28;20012;-62
2021/01/24 04:48:10;;;;;;;;;;;;;;;;;;5074536;28;19913;-62
2021/01/24 04:50:36;;;;;;;;;;;;;;;;;;5074553;28;19950;-62
2021/01/24 04:53:02;;;;;;;;;;;;;;;;;;5074531;28;19908;-62
2021/01/24 04:55:28;;;;;;;;;;;;;;;;;;5073289;28;19930;-62
2021/01/24 04:57:54;;;;;;;;;;;;;;;;;;5074159;28;20011;-62
2021/01/24 05:00:20;;;;;;;;;;;;;;;;;;5074305;28;19912;-62
2021/01/24 05:02:46;;;;;;;;;;;;;;;;;;5074314;28;20276;-63
2021/01/24 05:05:12;;;;;;;;;;;;;;;;;;5074315;28;19919;-62
2021/01/24 05:07:38;;;;;;;;;;;;;;;;;;5074128;28;19908;-63
2021/01/24 05:10:04;;;;;;;;;;;;;;;;;;5074182;28;20011;-62
2021/01/24 05:12:30;;;;;;;;;;;;;;;;;;5074087;28;20341;-63
2021/01/24 05:14:56;;;;;;;;;;;;;;;;;;5074174;28;19943;-63
2021/01/24 05:17:22;;;;;;;;;;;;;;;;;;5074045;28;19946;-62
2021/01/24 05:19:47;;;;;;;;;;;;;;;;;;5074117;28;19916;-62
2021/01/24 05:22:13;;;;;;;;;;;;;;;;;;5074104;28;19958;-63
2021/01/24 05:24:39;;;;;;;;;;;;;;;;;;5073951;28;19944;-63
2021/01/24 05:27:05;;;;;;;;;;;;;;;;;;5074298;28;19942;-62
2021/01/24 05:29:31;;;;;;;;;;;;;;;;;;5073215;28;20033;-62
2021/01/24 05:31:57;;;;;;;;;;;;;;;;;;5073844;28;19949;-62
2021/01/24 05:34:23;;;;;;;;;;;;;;;;;;5073948;28;20066;-62
2021/01/24 05:36:49;;;;;;;;;;;;;;;;;;5073731;28;20429;-63
2021/01/24 05:39:15;;;;;;;;;;;;;;;;;;5073791;28;19916;-63
2021/01/24 05:41:41;;;;;;;;;;;;;;;;;;5073736;28;19946;-62
2021/01/24 05:44:07;;;;;;;;;;;;;;;;;;5073973;28;19908;-63
2021/01/24 05:46:33;;;;;;;;;;;;;;;;;;5073732;28;19947;-62
2021/01/24 05:48:59;;;;;;;;;;;;;;;;;;5073468;28;19916;-63
2021/01/24 05:51:25;;;;;;;;;;;;;;;;;;5073605;28;19944;-62
2021/01/24 05:53:51;;;;;;;;;;;;;;;;;;5073620;28;19995;-63
2021/01/24 05:56:17;;;;;;;;;;;;;;;;;;5073659;28;19990;-63
2021/01/24 05:58:43;;;;;;;;;;;;;;;;;;5073561;28;19912;-63
2021/01/24 06:01:09;;;;;;;;;;;;;;;;;;5073857;28;19916;-63
2021/01/24 06:03:35;;;;;;;;;;;;;;;;;;5073415;28;20380;-63
2021/01/24 06:06:01;;;;;;;;;;;;;;;;;;5073678;28;20038;-63
2021/01/24 06:08:29;;;;;;;;;;;;;;;;;;5073317;28;19990;-63
2021/01/24 06:10:55;;;;;;;;;;;;;;;;;;5073520;28;19908;-63
2021/01/24 06:13:21;;;;;;;;;;;;;;;;;;5073327;28;19909;-63
2021/01/24 06:15:47;;;;;;;;;;;;;;;;;;5073418;28;19909;-62
2021/01/24 06:18:13;;;;;;;;;;;;;;;;;;5073671;28;20021;-62
2021/01/24 06:20:39;;;;;;;;;;;;;;;;;;5073378;28;20272;-63
2021/01/24 06:23:05;;;;;;;;;;;;;;;;;;5073292;28;19945;-63
2021/01/24 06:25:31;;;;;;;;;;;;;;;;;;5073722;28;19962;-63
2021/01/24 06:27:57;;;;;;;;;;;;;;;;;;5073353;28;19943;-63
2021/01/24 06:30:23;;;;;;;;;;;;;;;;;;5073904;28;19992;-62
2021/01/24 06:32:49;;;;;;;;;;;;;;;;;;5073208;28;20426;-62
2021/01/24 06:35:15;;;;;;;;;;;;;;;;;;5073311;28;19980;-63
2021/01/24 06:37:40;;;;;;;;;;;;;;;;;;5073250;28;19916;-62
2021/01/24 06:40:06;;;;;;;;;;;;;;;;;;5073151;28;19921;-63
2021/01/24 06:42:32;;;;;;;;;;;;;;;;;;5076471;28;19912;-62
2021/01/24 06:44:58;;;;;;;;;;;;;;;;;;5076983;28;20014;-62
2021/01/24 06:47:24;;;;;;;;;;;;;;;;;;5077649;28;19923;-63
2021/01/24 06:49:50;;;;;;;;;;;;;;;;;;5076767;28;19951;-63
2021/01/24 06:52:16;;;;;;;;;;;;;;;;;;5076756;28;20250;-64
2021/01/24 06:54:42;;;;;;;;;;;;;;;;;;5076790;28;19943;-62
2021/01/24 06:57:08;;;;;;;;;;;;;;;;;;5076573;28;19966;-64
2021/01/24 06:59:34;;;;;;;;;;;;;;;;;;5076572;28;20374;-63
2021/01/24 07:02:00;;;;;;;;;;;;;;;;;;5076858;28;19909;-62
2021/01/24 07:04:29;;;;;;;;;;;;;;;;;;5076524;28;19909;-63
2021/01/24 07:06:55;;;;;;;;;;;;;;;;;;5076603;28;19955;-62
2021/01/24 07:09:21;;;;;;;;;;;;;;;;;;5076380;28;19954;-63
2021/01/24 07:11:47;;;;;;;;;;;;;;;;;;5076482;28;19923;-64
2021/01/24 07:14:13;;;;;;;;;;;;;;;;;;5076306;28;19908;-63
2021/01/24 07:16:39;;;;;;;;;;;;;;;;;;5080158;28;19927;-62
2021/01/24 07:19:06;;;;;;;;;;;;;;;;;;5076245;28;19915;-63
2021/01/24 07:21:32;;;;;;;;;;;;;;;;;;5076273;28;20357;-62
2021/01/24 07:23:58;;;;;;;;;;;;;;;;;;5076543;28;19908;-62
2021/01/24 07:26:24;;;;;;;;;;;;;;;;;;5076397;28;20292;-63
2021/01/24 07:28:49;;;;;;;;;;;;;;;;;;5076132;28;19947;-63
2021/01/24 07:31:15;;;;;;;;;;;;;;;;;;5076402;28;19923;-63
2021/01/24 07:33:41;;;;;;;;;;;;;;;;;;5074882;28;20263;-62
2021/01/24 07:36:07;;;;;;;;;;;;;;;;;;5075923;28;19950;-63
2021/01/24 07:38:33;;;;;;;;;;;;;;;;;;5093848;28;20093;-62
2021/01/24 07:40:59;;;;;;;;;;;;;;;;;;5084546;28;19926;-61
2021/01/24 07:43:25;;;;;;;;;;;;;;;;;;5083221;28;19927;-63
2021/01/24 07:45:51;;;;;;;;;;;;;;;;;;5075707;28;19913;-63
2021/01/24 07:48:17;;;;;;;;;;;;;;;;;;5075807;28;19916;-63
2021/01/24 07:50:43;;;;;;;;;;;;;;;;;;5075819;28;19916;-64
2021/01/24 07:53:09;;;;;;;;;;;;;;;;;;5074694;28;19916;-63
2021/01/24 07:55:35;;;;;;;;;;;;;;;;;;5075651;28;19909;-63
2021/01/24 07:58:01;;;;;;;;;;;;;;;;;;5075416;28;19966;-63
2021/01/24 08:00:27;;;;;;;;;;;;;;;;;;5075192;28;20392;-63
2021/01/24 08:02:53;;;;;;;;;;;;;;;;;;5075905;28;19909;-63
2021/01/24 08:05:19;;;;;;;;;;;;;;;;;;5075521;28;19908;-62
2021/01/24 08:07:45;;;;;;;;;;;;;;;;;;5075600;28;20361;-63
2021/01/24 08:10:11;;;;;;;;;;;;;;;;;;5075226;28;20306;-63
2021/01/24 08:12:37;;;;;;;;;;;;;;;;;;5075304;28;20005;-62
2021/01/24 08:15:03;;;;;;;;;;;;;;;;;;5075479;28;19928;-63
2021/01/24 08:17:29;;;;;;;;;;;;;;;;;;5074999;28;19909;-62
2021/01/24 08:19:55;;;;;;;;;;;;;;;;;;5074965;28;19915;-62
2021/01/24 08:22:21;;;;;;;;;;;;;;;;;;5075179;28;19915;-63
2021/01/24 08:24:47;;;;;;;;;;;;;;;;;;5074750;28;20329;-62
2021/01/24 08:27:13;;;;;;;;;;;;;;;;;;5075208;28;19910;-62
2021/01/24 08:29:39;;;;;;;;;;;;;;;;;;5074876;28;19917;-62
2021/01/24 08:32:04;;;;;;;;;;;;;;;;;;5080757;28;20440;-61
2021/01/24 08:34:30;;;;;;;;;;;;;;;;;;5085749;28;19920;-61
2021/01/24 08:36:56;;;;;;;;;;;;;;;;;;5081696;28;19913;-60
2021/01/24 08:39:23;;;;;;;;;;;;;;;;;;5083875;28;20067;-62
2021/01/24 08:41:49;;;;;;;;;;;;;;;;;;5083819;28;19915;-61
2021/01/24 08:44:15;;;;;;;;;;;;;;;;;;5084057;28;19955;-61
2021/01/24 08:46:42;;;;;;;;;;;;;;;;;;5083332;28;19977;-61
2021/01/24 08:49:08;;;;;;;;;;;;;;;;;;5082526;28;20007;-62
2021/01/24 08:51:34;;;;;;;;;;;;;;;;;;5083293;28;19993;-62
2021/01/24 08:54:00;;;;;;;;;;;;;;;;;;5082849;28;20348;-63
2021/01/24 08:56:26;;;;;;;;;;;;;;;;;;5093295;28;19916;-63
2021/01/24 08:58:53;;;;;;;;;;;;;;;;;;5094690;28;19912;-63
2021/01/24 09:01:19;;;;;;;;;;;;;;;;;;5087520;28;19913;-62
2021/01/24 09:03:45;;;;;;;;;;;;;;;;;;5082277;28;19913;-63
2021/01/24 09:06:11;;;;;;;;;;;;;;;;;;5079192;28;19995;-62
2021/01/24 09:08:37;;;;;;;;;;;;;;;;;;5078991;28;19916;-62
2021/01/24 09:11:03;;;;;;;;;;;;;;;;;;5075082;28;19999;-62
2021/01/24 09:13:29;;;;;;;;;;;;;;;;;;5075694;28;20367;-62
2021/01/24 09:15:55;;;;;;;;;;;;;;;;;;5082955;28;19959;-62
2021/01/24 09:18:21;;;;;;;;;;;;;;;;;;5089674;28;19916;-62
2021/01/24 09:20:47;;;;;;;;;;;;;;;;;;5073860;28;19987;-63
2021/01/24 09:23:13;;;;;;;;;;;;;;;;;;5084693;28;19908;-62
2021/01/24 09:25:38;;;;;;;;;;;;;;;;;;5094280;28;19916;-63
2021/01/24 09:28:04;;;;;;;;;;;;;;;;;;5094040;28;20003;-62
2021/01/24 09:30:30;;;;;;;;;;;;;;;;;;5085848;28;19913;-62
2021/01/24 09:32:58;;;;;;;;;;;;;;;;;;5074708;28;19913;-63
2021/01/24 09:35:24;;;;;;;;;;;;;;;;;;5073882;28;20053;-62
2021/01/24 09:37:50;;;;;;;;;;;;;;;;;;5078729;28;19999;-61
2021/01/24 09:40:16;;;;;;;;;;;;;;;;;;5078201;28;19955;-62
2021/01/24 09:42:42;;;;;;;;;;;;;;;;;;5073713;28;20267;-62
2021/01/24 09:45:08;;;;;;;;;;;;;;;;;;5073688;28;20003;-63
2021/01/24 09:47:34;;;;;;;;;;;;;;;;;;5073639;28;19912;-63
2021/01/24 09:50:00;;;;;;;;;;;;;;;;;;5073615;28;20018;-63
2021/01/24 09:52:26;;;;;;;;;;;;;;;;;;5073638;28;19949;-63
2021/01/24 09:54:52;;;;;;;;;;;;;;;;;;5073713;28;20315;-62
2021/01/24 09:57:18;;;;;;;;;;;;;;;;;;5073537;28;19921;-64
2021/01/24 09:59:44;;;;;;;;;;;;;;;;;;5073743;28;20369;-63
2021/01/24 10:02:10;;;;;;;;;;;;;;;;;;5073557;28;19908;-64
2021/01/24 10:04:35;;;;;;;;;;;;;;;;;;5073615;28;19908;-64
2021/01/24 10:07:01;;;;;;;;;;;;;;;;;;5073508;28;19954;-64
2021/01/24 10:09:27;;;;;;;;;;;;;;;;;;5073756;28;19916;-65
2021/01/24 10:11:53;;;;;;;;;;;;;;;;;;5073438;28;20397;-64
2021/01/24 10:14:19;;;;;;;;;;;;;;;;;;5072199;28;19947;-63
2021/01/24 10:16:45;;;;;;;;;;;;;;;;;;5075476;28;20311;-62
2021/01/24 10:19:11;;;;;;;;;;;;;;;;;;5077409;28;19923;-64
2021/01/24 10:21:37;;;;;;;;;;;;;;;;;;5077538;28;19923;-63
2021/01/24 10:24:03;;;;;;;;;;;;;;;;;;5077173;28;19962;-64
2021/01/24 10:26:29;;;;;;;;;;;;;;;;;;5077292;28;19916;-62
2021/01/24 10:28:55;;;;;;;;;;;;;;;;;;5077028;28;19913;-62
2021/01/24 10:31:21;;;;;;;;;;;;;;;;;;5079401;28;19942;-62
2021/01/24 10:33:47;;;;;;;;;;;;;;;;;;5094253;28;19908;-64
2021/01/24 10:36:13;;;;;;;;;;;;;;;;;;5097520;28;19916;-63
2021/01/24 10:38:39;;;;;;;;;;;;;;;;;;5097230;28;19961;-64
2021/01/24 10:41:05;;;;;;;;;;;;;;;;;;5090756;28;19909;-62
2021/01/24 10:43:31;;;;;;;;;;;;;;;;;;5097720;28;19930;-60
2021/01/24 10:45:57;;;;;;;;;;;;;;;;;;5097212;28;19946;-62
2021/01/24 10:48:23;;;;;;;;;;;;;;;;;;5097060;28;19955;-63
2021/01/24 10:50:49;;;;;;;;;;;;;;;;;;5097056;28;19991;-62
2021/01/24 10:53:15;;;;;;;;;;;;;;;;;;5096890;28;19951;-61
2021/01/24 10:55:42;;;;;;;;;;;;;;;;;;5096891;28;19946;-61
2021/01/24 10:58:08;;;;;;;;;;;;;;;;;;5084408;28;19927;-61
2021/01/24 11:00:35;;;;;;;;;;;;;;;;;;5085406;28;19931;-63
2021/01/24 11:03:01;;;;;;;;;;;;;;;;;;5076735;28;19986;-64
2021/01/24 11:05:27;;;;;;;;;;;;;;;;;;5076522;28;19966;-62
2021/01/24 11:07:53;;;;;;;;;;;;;;;;;;5076657;28;19993;-62
2021/01/24 11:10:19;;;;;;;;;;;;;;;;;;5080663;28;20281;-61
2021/01/24 11:12:45;;;;;;;;;;;;;;;;;;5089595;28;19909;-64
2021/01/24 11:15:11;;;;;;;;;;;;;;;;;;5085505;28;19926;-62
2021/01/24 11:17:38;;;;;;;;;;;;;;;;;;5096894;28;19909;-62
2021/01/24 11:20:04;;;;;;;;;;;;;;;;;;5096555;28;19954;-63
2021/01/24 11:24:56;;;;;;;;;;;;;;;;;;5014026;28;19980;-64
2021/01/24 11:27:22;;;;;;;;;;;;;;;;;;5015697;28;19909;-64
2021/01/24 11:29:48;;;;;;;;;;;;;;;;;;5016258;28;20098;-64
2021/01/24 11:32:14;;;;;;;;;;;;;;;;;;5017294;28;19947;-64
2021/01/24 11:34:40;;;;;;;;;;;;;;;;;;5016167;28;19917;-64
2021/01/24 11:37:06;;;;;;;;;;;;;;;;;;5016245;28;20045;-64
2021/01/24 11:39:32;;;;;;;;;;;;;;;;;;5016556;28;19910;-64
2021/01/24 11:41:58;;;;;;;;;;;;;;;;;;5016451;28;20456;-64
2021/01/24 11:44:24;;;;;;;;;;;;;;;;;;5016126;28;20316;-64
2021/01/24 11:46:50;;;;;;;;;;;;;;;;;;5015980;28;19963;-64
2021/01/24 11:49:16;;;;;;;;;;;;;;;;;;5015758;28;19960;-65
2021/01/24 11:51:42;;;;;;;;;;;;;;;;;;5016247;28;19913;-66
2021/01/24 11:54:08;;;;;;;;;;;;;;;;;;5016054;28;19928;-65
2021/01/24 11:56:34;;;;;;;;;;;;;;;;;;5016063;28;19973;-65
2021/01/24 11:59:00;;;;;;;;;;;;;;;;;;5015696;28;20418;-65
2021/01/24 12:01:26;;;;;;;;;;;;;;;;;;5015853;28;19959;-64
2021/01/24 12:03:52;;;;;;;;;;;;;;;;;;5015731;28;19988;-64
2021/01/24 12:06:19;;;;;;;;;;;;;;;;;;5015767;28;19956;-65
2021/01/24 12:08:45;;;;;;;;;;;;;;;;;;5015744;28;19922;-66
2021/01/24 12:11:10;;;;;;;;;;;;;;;;;;5015896;28;20462;-66
2021/01/24 12:13:36;;;;;;;;;;;;;;;;;;5015488;28;20356;-65
2021/01/24 12:16:02;;;;;;;;;;;;;;;;;;5015505;28;19909;-64
2021/01/24 12:18:28;;;;;;;;;;;;;;;;;;5015624;28;19909;-65
2021/01/24 12:20:54;;;;;;;;;;;;;;;;;;5015657;28;19916;-65
2021/01/24 12:23:22;;;;;;;;;;;;;;;;;;5015039;28;19954;-64
2021/01/24 12:25:48;;;;;;;;;;;;;;;;;;5015578;28;20305;-65
2021/01/24 12:28:14;;;;;;;;;;;;;;;;;;5014993;28;20031;-65
2021/01/24 12:30:40;;;;;;;;;;;;;;;;;;5023967;28;19913;-64
2021/01/24 12:33:11;;;;;;;;;;;;;;;;;;5016896;28;19989;-65
2021/01/24 12:35:37;;;;;;;;;;;;;;;;;;5015798;28;20376;-63
2021/01/24 12:38:02;;;;;;;;;;;;;;;;;;5015301;28;19948;-62
2021/01/24 12:40:28;;;;;;;;;;;;;;;;;;5014885;28;19909;-63
2021/01/24 12:42:54;;;;;;;;;;;;;;;;;;5014962;28;19944;-64
2021/01/24 12:45:20;;;;;;;;;;;;;;;;;;5014997;28;19955;-63
2021/01/24 12:47:46;;;;;;;;;;;;;;;;;;5019947;28;19917;-64
2021/01/24 12:50:12;;;;;;;;;;;;;;;;;;5032235;28;19955;-64
2021/01/24 12:52:39;;;;;;;;;;;;;;;;;;5032376;28;19916;-63
2021/01/24 12:55:05;;;;;;;;;;;;;;;;;;5012551;28;19924;-63
2021/01/24 12:57:31;;;;;;;;;;;;;;;;;;5012778;28;19935;-64
2021/01/24 12:59:57;;;;;;;;;;;;;;;;;;5013167;28;19920;-66
2021/01/24 13:02:23;;;;;;;;;;;;;;;;;;5012445;28;20297;-65
2021/01/24 13:04:49;;;;;;;;;;;;;;;;;;5012539;28;20092;-64
2021/01/24 13:07:15;;;;;;;;;;;;;;;;;;5012434;28;19909;-64
2021/01/24 13:09:41;;;;;;;;;;;;;;;;;;5012514;28;19944;-64
2021/01/24 13:12:07;;;;;;;;;;;;;;;;;;5012634;28;19936;-64
2021/01/24 13:14:33;;;;;;;;;;;;;;;;;;5012262;28;19917;-65
2021/01/24 13:17:01;;;;;;;;;;;;;;;;;;5013211;28;20326;-65
2021/01/24 13:19:27;;;;;;;;;;;;;;;;;;5027650;28;19927;-64
2021/01/24 13:21:53;;;;;;;;;;;;;;;;;;5032366;28;19916;-64
2021/01/24 13:24:19;;;;;;;;;;;;;;;;;;5032046;28;20002;-64
2021/01/24 13:26:45;;;;;;;;;;;;;;;;;;5031575;28;19910;-64
2021/01/24 13:29:11;;;;;;;;;;;;;;;;;;5032643;28;19940;-64
2021/01/24 13:31:37;;;;;;;;;;;;;;;;;;5032521;28;20397;-64
2021/01/24 13:34:03;;;;;;;;;;;;;;;;;;5032796;28;19909;-64
2021/01/24 13:36:29;;;;;;;;;;;;;;;;;;5032520;28;19925;-64
2021/01/24 13:38:55;;;;;;;;;;;;;;;;;;5016730;28;20043;-64
2021/01/24 13:41:21;;;;;;;;;;;;;;;;;;5013696;28;20388;-63
2021/01/24 13:43:47;;;;;;;;;;;;;;;;;;5011848;28;20065;-64
2021/01/24 13:46:13;;;;;;;;;;;;;;;;;;5012382;28;19910;-64
2021/01/24 13:48:39;;;;;;;;;;;;;;;;;;5012324;28;20281;-63
2021/01/24 13:51:05;;;;;;;;;;;;;;;;;;5011600;28;19909;-63
2021/01/24 13:53:31;;;;;;;;;;;;;;;;;;5017135;28;19923;-63
2021/01/24 13:55:57;;;;;;;;;;;;;;;;;;5012570;28;20346;-64
2021/01/24 13:58:23;;;;;;;;;;;;;;;;;;5012641;28;19951;-65
2021/01/24 14:00:49;;;;;;;;;;;;;;;;;;5012238;28;20313;-65
2021/01/24 14:03:15;;;;;;;;;;;;;;;;;;5015924;28;19909;-65
2021/01/24 14:05:41;;;;;;;;;;;;;;;;;;5031911;28;19928;-65
2021/01/24 14:08:07;;;;;;;;;;;;;;;;;;5032213;28;20300;-65
2021/01/24 14:10:33;;;;;;;;;;;;;;;;;;5031792;28;19955;-64
2021/01/24 14:12:59;;;;;;;;;;;;;;;;;;5032190;28;19909;-65
2021/01/24 14:15:25;;;;;;;;;;;;;;;;;;5031836;28;20411;-64
2021/01/24 14:17:51;;;;;;;;;;;;;;;;;;5031944;28;19913;-65
2021/01/24 14:20:17;;;;;;;;;;;;;;;;;;5032535;28;19996;-65
2021/01/24 14:22:43;;;;;;;;;;;;;;;;;;5032223;28;19909;-65
2021/01/24 14:25:09;;;;;;;;;;;;;;;;;;5031570;28;19967;-65
2021/01/24 14:27:35;;;;;;;;;;;;;;;;;;5031833;28;19932;-65
2021/01/24 14:30:01;;;;;;;;;;;;;;;;;;5031706;28;20036;-65
2021/01/24 14:32:27;;;;;;;;;;;;;;;;;;5031685;28;19952;-65
2021/01/24 14:34:53;;;;;;;;;;;;;;;;;;5031430;28;19928;-65
2021/01/24 14:37:19;;;;;;;;;;;;;;;;;;5031875;28;20274;-64
2021/01/24 14:39:45;;;;;;;;;;;;;;;;;;5031742;28;19914;-65
2021/01/24 14:42:11;;;;;;;;;;;;;;;;;;5032020;28;20058;-64
2021/01/24 14:44:37;;;;;;;;;;;;;;;;;;5031702;28;20354;-64
2021/01/24 14:47:02;;;;;;;;;;;;;;;;;;5031457;28;19913;-65
2021/01/24 14:49:28;;;;;;;;;;;;;;;;;;5031884;28;19924;-64
2021/01/24 14:51:54;;;;;;;;;;;;;;;;;;5031400;28;20433;-65
2021/01/24 14:54:20;;;;;;;;;;;;;;;;;;5030457;28;19969;-65
2021/01/24 14:56:46;;;;;;;;;;;;;;;;;;5031342;28;19928;-65
2021/01/24 14:59:12;;;;;;;;;;;;;;;;;;5031640;28;20418;-65
2021/01/24 15:01:38;;;;;;;;;;;;;;;;;;5031877;28;20049;-64
2021/01/24 15:04:04;;;;;;;;;;;;;;;;;;5035311;28;19990;-64
2021/01/24 15:06:30;;;;;;;;;;;;;;;;;;5033707;28;19951;-65
2021/01/24 15:08:56;;;;;;;;;;;;;;;;;;5035250;28;20049;-65
2021/01/24 15:11:22;;;;;;;;;;;;;;;;;;5035455;28;20034;-65
2021/01/24 15:13:48;;;;;;;;;;;;;;;;;;5035053;28;19972;-65
2021/01/24 15:16:14;;;;;;;;;;;;;;;;;;5034834;28;19952;-65
2021/01/24 15:18:40;;;;;;;;;;;;;;;;;;5035020;28;19913;-64
2021/01/24 15:21:06;;;;;;;;;;;;;;;;;;5035020;28;19964;-65
2021/01/24 15:23:34;;;;;;;;;;;;;;;;;;5034460;28;20011;-65
2021/01/24 15:26:00;;;;;;;;;;;;;;;;;;5034728;28;19914;-65
2021/01/24 15:28:26;;;;;;;;;;;;;;;;;;5017068;28;20028;-63
2021/01/24 15:30:52;;;;;;;;;;;;;;;;;;5014340;28;19978;-64
2021/01/24 15:33:18;;;;;;;;;;;;;;;;;;5021607;28;20030;-64
2021/01/24 15:35:44;;;;;;;;;;;;;;;;;;5025873;28;20293;-63
2021/01/24 15:38:10;;;;;;;;;;;;;;;;;;5021679;28;19994;-63
2021/01/24 15:40:36;;;;;;;;;;;;;;;;;;5014610;28;19910;-63
2021/01/24 15:43:02;;;;;;;;;;;;;;;;;;5014472;28;20369;-63
2021/01/24 15:45:28;;;;;;;;;;;;;;;;;;5014527;28;20055;-63
2021/01/24 15:47:56;;;;;;;;;;;;;;;;;;5014414;28;19972;-63
2021/01/24 15:50:22;;;;;;;;;;;;;;;;;;5014859;28;19918;-63
2021/01/24 15:52:48;;;;;;;;;;;;;;;;;;5014981;28;19909;-63
2021/01/24 15:55:14;;;;;;;;;;;;;;;;;;5019820;28;20003;-64
2021/01/24 15:57:40;;;;;;;;;;;;;;;;;;5015649;28;19972;-62
2021/01/24 16:00:06;;;;;;;;;;;;;;;;;;5014300;28;20262;-64
2021/01/24 16:02:32;;;;;;;;;;;;;;;;;;5015423;28;19914;-64
2021/01/24 16:04:58;;;;;;;;;;;;;;;;;;5015967;28;20320;-63
2021/01/24 16:07:24;;;;;;;;;;;;;;;;;;5014443;28;20251;-64
2021/01/24 16:09:50;;;;;;;;;;;;;;;;;;5013668;28;19926;-63
2021/01/24 16:12:16;;;;;;;;;;;;;;;;;;5013783;28;20341;-63
2021/01/24 16:14:42;;;;;;;;;;;;;;;;;;5013312;28;19957;-62
2021/01/24 16:17:08;;;;;;;;;;;;;;;;;;5014916;28;19909;-63
2021/01/24 16:19:34;;;;;;;;;;;;;;;;;;5025070;28;20385;-63
2021/01/24 16:22:00;;;;;;;;;;;;;;;;;;5013909;28;20008;-64
2021/01/24 16:24:26;;;;;;;;;;;;;;;;;;5013670;28;20408;-63
2021/01/24 16:26:53;;;;;;;;;;;;;;;;;;5013407;28;20293;-63
2021/01/24 16:29:19;;;;;;;;;;;;;;;;;;5011672;28;19962;-64
2021/01/24 16:31:45;;;;;;;;;;;;;;;;;;5016953;28;19913;-63
2021/01/24 16:34:11;;;;;;;;;;;;;;;;;;5020057;28;19924;-63
2021/01/24 16:36:37;;;;;;;;;;;;;;;;;;5013507;28;19955;-61
2021/01/24 16:39:03;;;;;;;;;;;;;;;;;;5012067;28;20006;-63